sensor_id;sensor_type;location;lat;lon;timestamp;temperature;humidity
34279;DHT22;20538;51.528;9.942;2022-07-21T00:01:51;24.30;97.40
34279;DHT22;20538;51.528;9.942;2022-07-21T00:04:17;24.40;97.30
34279;DHT22;20538;51.528;9.942;2022-07-21T00:06:44;24.40;97.60
34279;DHT22;20538;51.528;9.942;2022-07-21T00:09:11;24.40;97.40
34279;DHT22;20538;51.528;9.942;2022-07-21T00:11:38;24.40;97.00
34279;DHT22;20538;51.528;9.942;2022-07-21T00:14:05;24.20;97.40
34279;DHT22;20538;51.528;9.942;2022-07-21T00:16:31;24.20;98.10
34279;DHT22;20538;51.528;9.942;2022-07-21T00:18:56;24.20;97.80
34279;DHT22;20538;51.528;9.942;2022-07-21T00:21:22;24.20;98.10
34279;DHT22;20538;51.528;9.942;2022-07-21T00:23:48;24.20;98.10
34279;DHT22;20538;51.528;9.942;2022-07-21T00:26:14;24.00;98.90
34279;DHT22;20538;51.528;9.942;2022-07-21T00:28:40;24.00;99.20
34279;DHT22;20538;51.528;9.942;2022-07-21T00:31:06;23.90;99.00
34279;DHT22;20538;51.528;9.942;2022-07-21T00:33:32;23.90;99.30
34279;DHT22;20538;51.528;9.942;2022-07-21T00:35:58;23.90;99.80
34279;DHT22;20538;51.528;9.942;2022-07-21T00:38:23;24.00;99.70
34279;DHT22;20538;51.528;9.942;2022-07-21T00:40:49;24.00;99.70
34279;DHT22;20538;51.528;9.942;2022-07-21T00:43:15;24.10;99.40
34279;DHT22;20538;51.528;9.942;2022-07-21T00:45:40;24.10;99.00
34279;DHT22;20538;51.528;9.942;2022-07-21T00:48:06;24.10;98.90
34279;DHT22;20538;51.528;9.942;2022-07-21T00:50:33;23.80;99.50
34279;DHT22;20538;51.528;9.942;2022-07-21T00:52:59;23.60;99.90
34279;DHT22;20538;51.528;9.942;2022-07-21T00:55:24;23.60;99.90
34279;DHT22;20538;51.528;9.942;2022-07-21T00:57:52;23.60;99.90
34279;DHT22;20538;51.528;9.942;2022-07-21T01:00:25;23.60;99.90
34279;DHT22;20538;51.528;9.942;2022-07-21T01:02:52;23.60;99.90
34279;DHT22;20538;51.528;9.942;2022-07-21T01:05:18;23.60;99.90
34279;DHT22;20538;51.528;9.942;2022-07-21T01:07:51;23.60;99.90
34279;DHT22;20538;51.528;9.942;2022-07-21T01:10:19;23.60;99.90
34279;DHT22;20538;51.528;9.942;2022-07-21T01:12:45;23.50;99.90
34279;DHT22;20538;51.528;9.942;2022-07-21T01:15:12;23.50;99.90
34279;DHT22;20538;51.528;9.942;2022-07-21T01:17:39;23.50;99.90
34279;DHT22;20538;51.528;9.942;2022-07-21T01:20:08;23.40;99.90
34279;DHT22;20538;51.528;9.942;2022-07-21T01:22:37;23.30;99.90
34279;DHT22;20538;51.528;9.942;2022-07-21T01:25:05;23.30;99.90
34279;DHT22;20538;51.528;9.942;2022-07-21T01:27:31;23.30;99.90
34279;DHT22;20538;51.528;9.942;2022-07-21T01:29:57;23.30;99.90
34279;DHT22;20538;51.528;9.942;2022-07-21T01:32:28;23.20;99.90
34279;DHT22;20538;51.528;9.942;2022-07-21T01:34:54;23.30;99.90
34279;DHT22;20538;51.528;9.942;2022-07-21T01:37:26;23.30;99.90
34279;DHT22;20538;51.528;9.942;2022-07-21T01:39:52;23.30;99.90
34279;DHT22;20538;51.528;9.942;2022-07-21T01:42:37;23.30;99.90
34279;DHT22;20538;51.528;9.942;2022-07-21T01:45:04;23.30;99.90
34279;DHT22;20538;51.528;9.942;2022-07-21T01:47:31;23.20;99.90
34279;DHT22;20538;51.528;9.942;2022-07-21T01:49:57;23.30;99.90
34279;DHT22;20538;51.528;9.942;2022-07-21T01:52:22;23.20;99.90
34279;DHT22;20538;51.528;9.942;2022-07-21T01:54:48;23.10;99.90
34279;DHT22;20538;51.528;9.942;2022-07-21T01:57:14;23.10;99.90
34279;DHT22;20538;51.528;9.942;2022-07-21T01:59:40;23.00;99.90
34279;DHT22;20538;51.528;9.942;2022-07-21T02:02:06;22.90;99.90
34279;DHT22;20538;51.528;9.942;2022-07-21T02:04:32;22.60;99.90
34279;DHT22;20538;51.528;9.942;2022-07-21T02:07:00;22.50;99.90
34279;DHT22;20538;51.528;9.942;2022-07-21T02:09:27;22.50;99.90
34279;DHT22;20538;51.528;9.942;2022-07-21T02:11:52;22.40;99.90
34279;DHT22;20538;51.528;9.942;2022-07-21T02:14:18;22.50;99.90
34279;DHT22;20538;51.528;9.942;2022-07-21T02:16:44;22.60;99.90
34279;DHT22;20538;51.528;9.942;2022-07-21T02:19:13;22.60;99.90
34279;DHT22;20538;51.528;9.942;2022-07-21T02:21:39;22.60;99.90
34279;DHT22;20538;51.528;9.942;2022-07-21T02:24:05;22.60;99.90
34279;DHT22;20538;51.528;9.942;2022-07-21T02:26:31;22.60;99.90
34279;DHT22;20538;51.528;9.942;2022-07-21T02:28:57;22.50;99.90
34279;DHT22;20538;51.528;9.942;2022-07-21T02:31:23;22.50;99.90
34279;DHT22;20538;51.528;9.942;2022-07-21T02:33:48;22.50;99.90
34279;DHT22;20538;51.528;9.942;2022-07-21T02:36:14;22.50;99.90
34279;DHT22;20538;51.528;9.942;2022-07-21T02:38:40;22.50;99.90
34279;DHT22;20538;51.528;9.942;2022-07-21T02:41:06;22.40;99.90
34279;DHT22;20538;51.528;9.942;2022-07-21T02:43:31;22.40;99.90
34279;DHT22;20538;51.528;9.942;2022-07-21T02:45:57;22.30;99.90
34279;DHT22;20538;51.528;9.942;2022-07-21T02:48:23;22.30;99.90
34279;DHT22;20538;51.528;9.942;2022-07-21T02:50:49;22.20;99.90
34279;DHT22;20538;51.528;9.942;2022-07-21T02:53:16;22.30;99.90
34279;DHT22;20538;51.528;9.942;2022-07-21T02:55:46;22.20;99.90
34279;DHT22;20538;51.528;9.942;2022-07-21T02:58:20;22.20;99.90
34279;DHT22;20538;51.528;9.942;2022-07-21T03:00:53;22.20;99.90
34279;DHT22;20538;51.528;9.942;2022-07-21T03:03:20;22.10;99.90
34279;DHT22;20538;51.528;9.942;2022-07-21T03:05:47;22.10;99.90
34279;DHT22;20538;51.528;9.942;2022-07-21T03:08:13;22.10;99.90
34279;DHT22;20538;51.528;9.942;2022-07-21T03:10:40;22.00;99.90
34279;DHT22;20538;51.528;9.942;2022-07-21T03:13:06;22.00;99.90
34279;DHT22;20538;51.528;9.942;2022-07-21T03:15:32;21.90;99.90
34279;DHT22;20538;51.528;9.942;2022-07-21T03:17:57;21.80;99.90
34279;DHT22;20538;51.528;9.942;2022-07-21T03:20:28;21.80;99.90
34279;DHT22;20538;51.528;9.942;2022-07-21T03:22:54;21.70;99.90
34279;DHT22;20538;51.528;9.942;2022-07-21T03:25:21;21.60;99.90
34279;DHT22;20538;51.528;9.942;2022-07-21T03:27:47;21.70;99.90
34279;DHT22;20538;51.528;9.942;2022-07-21T03:30:13;21.60;99.90
34279;DHT22;20538;51.528;9.942;2022-07-21T03:32:40;21.50;99.90
34279;DHT22;20538;51.528;9.942;2022-07-21T03:35:07;21.50;99.90
34279;DHT22;20538;51.528;9.942;2022-07-21T03:37:40;21.40;99.90
34279;DHT22;20538;51.528;9.942;2022-07-21T03:40:07;21.50;99.90
34279;DHT22;20538;51.528;9.942;2022-07-21T03:42:32;21.40;99.90
34279;DHT22;20538;51.528;9.942;2022-07-21T03:44:58;21.30;99.90
34279;DHT22;20538;51.528;9.942;2022-07-21T03:47:24;21.30;99.90
34279;DHT22;20538;51.528;9.942;2022-07-21T03:49:49;21.20;99.90
34279;DHT22;20538;51.528;9.942;2022-07-21T03:52:15;21.20;99.90
34279;DHT22;20538;51.528;9.942;2022-07-21T03:54:40;21.20;99.90
34279;DHT22;20538;51.528;9.942;2022-07-21T03:57:06;21.20;99.90
34279;DHT22;20538;51.528;9.942;2022-07-21T03:59:32;21.20;99.90
34279;DHT22;20538;51.528;9.942;2022-07-21T04:01:57;21.20;99.90
34279;DHT22;20538;51.528;9.942;2022-07-21T04:04:23;21.20;99.90
34279;DHT22;20538;51.528;9.942;2022-07-21T04:06:49;21.20;99.90
34279;DHT22;20538;51.528;9.942;2022-07-21T04:09:14;21.10;99.90
34279;DHT22;20538;51.528;9.942;2022-07-21T04:11:43;21.10;99.90
34279;DHT22;20538;51.528;9.942;2022-07-21T04:14:08;21.10;99.90
34279;DHT22;20538;51.528;9.942;2022-07-21T04:16:34;21.10;99.90
34279;DHT22;20538;51.528;9.942;2022-07-21T04:19:00;21.10;99.90
34279;DHT22;20538;51.528;9.942;2022-07-21T04:21:25;21.10;99.90
34279;DHT22;20538;51.528;9.942;2022-07-21T04:23:51;21.20;99.90
34279;DHT22;20538;51.528;9.942;2022-07-21T04:26:17;21.20;99.90
34279;DHT22;20538;51.528;9.942;2022-07-21T04:28:42;21.20;99.90
34279;DHT22;20538;51.528;9.942;2022-07-21T04:31:08;21.20;99.90
34279;DHT22;20538;51.528;9.942;2022-07-21T04:33:34;21.20;99.90
34279;DHT22;20538;51.528;9.942;2022-07-21T04:36:00;21.20;99.90
34279;DHT22;20538;51.528;9.942;2022-07-21T04:38:26;21.20;99.90
34279;DHT22;20538;51.528;9.942;2022-07-21T04:40:52;21.30;99.90
34279;DHT22;20538;51.528;9.942;2022-07-21T04:43:18;21.20;99.90
34279;DHT22;20538;51.528;9.942;2022-07-21T04:45:43;21.30;99.90
34279;DHT22;20538;51.528;9.942;2022-07-21T04:48:09;21.30;99.90
34279;DHT22;20538;51.528;9.942;2022-07-21T04:50:34;21.30;99.90
34279;DHT22;20538;51.528;9.942;2022-07-21T04:53:00;21.30;99.90
34279;DHT22;20538;51.528;9.942;2022-07-21T04:55:26;21.30;99.90
34279;DHT22;20538;51.528;9.942;2022-07-21T04:57:52;21.40;99.90
34279;DHT22;20538;51.528;9.942;2022-07-21T05:00:24;21.50;99.90
34279;DHT22;20538;51.528;9.942;2022-07-21T05:02:51;21.50;99.90
34279;DHT22;20538;51.528;9.942;2022-07-21T05:05:18;21.50;99.90
34279;DHT22;20538;51.528;9.942;2022-07-21T05:07:44;21.70;99.90
34279;DHT22;20538;51.528;9.942;2022-07-21T05:10:14;21.70;99.90
34279;DHT22;20538;51.528;9.942;2022-07-21T05:12:41;21.70;99.90
34279;DHT22;20538;51.528;9.942;2022-07-21T05:15:08;21.70;99.90
34279;DHT22;20538;51.528;9.942;2022-07-21T05:17:36;21.70;99.90
34279;DHT22;20538;51.528;9.942;2022-07-21T05:20:04;21.60;99.90
34279;DHT22;20538;51.528;9.942;2022-07-21T05:22:30;21.60;99.90
34279;DHT22;20538;51.528;9.942;2022-07-21T05:24:55;21.60;99.90
34279;DHT22;20538;51.528;9.942;2022-07-21T05:27:21;21.50;99.90
34279;DHT22;20538;51.528;9.942;2022-07-21T05:29:47;21.60;99.90
34279;DHT22;20538;51.528;9.942;2022-07-21T05:32:13;21.60;99.90
34279;DHT22;20538;51.528;9.942;2022-07-21T05:34:39;21.50;99.90
34279;DHT22;20538;51.528;9.942;2022-07-21T05:37:04;21.60;99.90
34279;DHT22;20538;51.528;9.942;2022-07-21T05:39:30;21.70;99.90
34279;DHT22;20538;51.528;9.942;2022-07-21T05:41:56;21.60;99.90
34279;DHT22;20538;51.528;9.942;2022-07-21T05:44:22;21.70;99.90
34279;DHT22;20538;51.528;9.942;2022-07-21T05:46:48;21.60;99.90
34279;DHT22;20538;51.528;9.942;2022-07-21T05:49:13;21.50;99.90
34279;DHT22;20538;51.528;9.942;2022-07-21T05:51:39;21.20;99.90
34279;DHT22;20538;51.528;9.942;2022-07-21T05:54:05;21.20;99.90
34279;DHT22;20538;51.528;9.942;2022-07-21T05:56:30;21.30;99.90
34279;DHT22;20538;51.528;9.942;2022-07-21T05:58:56;21.10;99.90
34279;DHT22;20538;51.528;9.942;2022-07-21T06:01:22;21.20;99.90
34279;DHT22;20538;51.528;9.942;2022-07-21T06:03:49;21.10;99.90
34279;DHT22;20538;51.528;9.942;2022-07-21T06:06:16;21.20;99.90
34279;DHT22;20538;51.528;9.942;2022-07-21T06:08:44;21.10;99.90
34279;DHT22;20538;51.528;9.942;2022-07-21T06:11:11;21.20;99.90
34279;DHT22;20538;51.528;9.942;2022-07-21T06:13:38;21.20;99.90
34279;DHT22;20538;51.528;9.942;2022-07-21T06:16:05;21.20;99.90
34279;DHT22;20538;51.528;9.942;2022-07-21T06:18:31;21.10;99.90
34279;DHT22;20538;51.528;9.942;2022-07-21T06:20:57;20.90;99.90
34279;DHT22;20538;51.528;9.942;2022-07-21T06:23:22;20.80;99.90
34279;DHT22;20538;51.528;9.942;2022-07-21T06:25:49;21.20;99.90
34279;DHT22;20538;51.528;9.942;2022-07-21T06:28:15;21.50;99.90
34279;DHT22;20538;51.528;9.942;2022-07-21T06:30:41;22.00;99.90
34279;DHT22;20538;51.528;9.942;2022-07-21T06:33:06;22.40;99.90
34279;DHT22;20538;51.528;9.942;2022-07-21T06:35:32;22.60;99.90
34279;DHT22;20538;51.528;9.942;2022-07-21T06:37:58;22.50;99.90
34279;DHT22;20538;51.528;9.942;2022-07-21T06:40:24;22.60;99.90
34279;DHT22;20538;51.528;9.942;2022-07-21T06:42:49;22.90;99.90
34279;DHT22;20538;51.528;9.942;2022-07-21T06:45:15;23.30;99.90
34279;DHT22;20538;51.528;9.942;2022-07-21T06:47:41;23.30;99.90
34279;DHT22;20538;51.528;9.942;2022-07-21T06:50:08;23.20;99.90
34279;DHT22;20538;51.528;9.942;2022-07-21T06:52:35;23.00;99.90
34279;DHT22;20538;51.528;9.942;2022-07-21T06:55:02;22.90;99.90
34279;DHT22;20538;51.528;9.942;2022-07-21T06:57:28;22.90;99.90
34279;DHT22;20538;51.528;9.942;2022-07-21T06:59:54;23.00;99.90
34279;DHT22;20538;51.528;9.942;2022-07-21T07:02:19;22.80;99.90
34279;DHT22;20538;51.528;9.942;2022-07-21T07:04:45;22.80;99.90
34279;DHT22;20538;51.528;9.942;2022-07-21T07:07:11;23.00;99.90
34279;DHT22;20538;51.528;9.942;2022-07-21T07:09:37;22.80;99.90
34279;DHT22;20538;51.528;9.942;2022-07-21T07:12:03;22.90;99.90
34279;DHT22;20538;51.528;9.942;2022-07-21T07:14:33;23.00;99.90
34279;DHT22;20538;51.528;9.942;2022-07-21T07:17:00;23.00;99.90
34279;DHT22;20538;51.528;9.942;2022-07-21T07:19:27;23.10;99.90
34279;DHT22;20538;51.528;9.942;2022-07-21T07:21:52;23.50;99.90
34279;DHT22;20538;51.528;9.942;2022-07-21T07:24:18;23.70;99.90
34279;DHT22;20538;51.528;9.942;2022-07-21T07:26:44;23.50;99.90
34279;DHT22;20538;51.528;9.942;2022-07-21T07:29:10;23.60;99.90
34279;DHT22;20538;51.528;9.942;2022-07-21T07:31:36;23.90;99.90
34279;DHT22;20538;51.528;9.942;2022-07-21T07:34:02;24.40;99.90
34279;DHT22;20538;51.528;9.942;2022-07-21T07:36:29;24.50;99.90
34279;DHT22;20538;51.528;9.942;2022-07-21T07:38:56;24.50;99.90
34279;DHT22;20538;51.528;9.942;2022-07-21T07:41:24;24.10;99.90
34279;DHT22;20538;51.528;9.942;2022-07-21T07:43:50;24.20;99.90
34279;DHT22;20538;51.528;9.942;2022-07-21T07:46:17;24.60;99.90
34279;DHT22;20538;51.528;9.942;2022-07-21T07:48:43;24.90;99.90
34279;DHT22;20538;51.528;9.942;2022-07-21T07:51:10;24.90;99.90
34279;DHT22;20538;51.528;9.942;2022-07-21T07:53:36;24.90;99.90
34279;DHT22;20538;51.528;9.942;2022-07-21T07:56:02;25.40;99.90
34279;DHT22;20538;51.528;9.942;2022-07-21T07:58:28;25.60;99.90
34279;DHT22;20538;51.528;9.942;2022-07-21T08:00:54;25.60;99.90
34279;DHT22;20538;51.528;9.942;2022-07-21T08:03:20;25.60;99.90
34279;DHT22;20538;51.528;9.942;2022-07-21T08:05:46;25.70;99.90
34279;DHT22;20538;51.528;9.942;2022-07-21T08:08:13;25.30;99.90
34279;DHT22;20538;51.528;9.942;2022-07-21T08:10:39;24.80;99.90
34279;DHT22;20538;51.528;9.942;2022-07-21T08:13:05;24.50;99.90
34279;DHT22;20538;51.528;9.942;2022-07-21T08:15:30;24.10;99.90
34279;DHT22;20538;51.528;9.942;2022-07-21T08:17:56;23.40;99.90
34279;DHT22;20538;51.528;9.942;2022-07-21T08:20:22;23.40;99.90
34279;DHT22;20538;51.528;9.942;2022-07-21T08:22:47;23.70;99.90
34279;DHT22;20538;51.528;9.942;2022-07-21T08:25:13;24.10;99.90
34279;DHT22;20538;51.528;9.942;2022-07-21T08:27:39;24.20;99.90
34279;DHT22;20538;51.528;9.942;2022-07-21T08:30:08;24.60;99.90
34279;DHT22;20538;51.528;9.942;2022-07-21T08:32:34;24.70;99.90
34279;DHT22;20538;51.528;9.942;2022-07-21T08:35:00;24.90;99.90
34279;DHT22;20538;51.528;9.942;2022-07-21T08:37:25;24.70;99.90
34279;DHT22;20538;51.528;9.942;2022-07-21T08:39:51;24.60;99.90
34279;DHT22;20538;51.528;9.942;2022-07-21T08:42:17;24.00;99.90
34279;DHT22;20538;51.528;9.942;2022-07-21T08:44:43;23.80;99.90
34279;DHT22;20538;51.528;9.942;2022-07-21T08:47:08;23.60;99.90
34279;DHT22;20538;51.528;9.942;2022-07-21T08:49:35;23.60;99.90
34279;DHT22;20538;51.528;9.942;2022-07-21T08:52:01;23.70;99.90
34279;DHT22;20538;51.528;9.942;2022-07-21T08:54:27;23.70;99.90
34279;DHT22;20538;51.528;9.942;2022-07-21T08:56:54;23.50;99.90
34279;DHT22;20538;51.528;9.942;2022-07-21T08:59:20;23.70;99.90
34279;DHT22;20538;51.528;9.942;2022-07-21T09:01:48;23.50;99.90
34279;DHT22;20538;51.528;9.942;2022-07-21T09:04:21;23.40;99.90
34279;DHT22;20538;51.528;9.942;2022-07-21T09:07:13;23.80;99.90
34279;DHT22;20538;51.528;9.942;2022-07-21T09:09:38;23.60;99.90
34279;DHT22;20538;51.528;9.942;2022-07-21T09:12:06;23.20;99.90
34279;DHT22;20538;51.528;9.942;2022-07-21T09:14:33;23.30;99.90
34279;DHT22;20538;51.528;9.942;2022-07-21T09:17:03;23.60;99.90
34279;DHT22;20538;51.528;9.942;2022-07-21T09:19:36;23.90;99.90
34279;DHT22;20538;51.528;9.942;2022-07-21T09:22:12;23.80;99.90
34279;DHT22;20538;51.528;9.942;2022-07-21T09:24:38;23.40;99.90
34279;DHT22;20538;51.528;9.942;2022-07-21T09:30:19;24.30;99.90
34279;DHT22;20538;51.528;9.942;2022-07-21T09:32:21;25.00;99.90
34279;DHT22;20538;51.528;9.942;2022-07-21T09:34:53;25.30;99.90
34279;DHT22;20538;51.528;9.942;2022-07-21T09:37:20;25.20;99.90
34279;DHT22;20538;51.528;9.942;2022-07-21T09:39:55;24.90;99.90
34279;DHT22;20538;51.528;9.942;2022-07-21T09:42:32;24.70;99.90
34279;DHT22;20538;51.528;9.942;2022-07-21T09:45:02;24.50;99.90
34279;DHT22;20538;51.528;9.942;2022-07-21T09:47:30;24.60;99.90
34279;DHT22;20538;51.528;9.942;2022-07-21T09:49:57;25.00;99.90
34279;DHT22;20538;51.528;9.942;2022-07-21T09:52:32;25.50;99.90
34279;DHT22;20538;51.528;9.942;2022-07-21T09:55:10;25.80;99.90
34279;DHT22;20538;51.528;9.942;2022-07-21T09:58:02;25.80;99.90
34279;DHT22;20538;51.528;9.942;2022-07-21T10:01:14;25.60;99.90
34279;DHT22;20538;51.528;9.942;2022-07-21T10:03:59;25.80;99.90
34279;DHT22;20538;51.528;9.942;2022-07-21T10:06:33;25.90;99.90
34279;DHT22;20538;51.528;9.942;2022-07-21T10:09:02;26.30;99.90
34279;DHT22;20538;51.528;9.942;2022-07-21T10:11:28;26.40;99.90
34279;DHT22;20538;51.528;9.942;2022-07-21T10:13:54;26.60;99.90
34279;DHT22;20538;51.528;9.942;2022-07-21T10:16:20;26.60;99.90
34279;DHT22;20538;51.528;9.942;2022-07-21T10:21:48;26.10;99.90
34279;DHT22;20538;51.528;9.942;2022-07-21T10:24:17;26.20;99.90
34279;DHT22;20538;51.528;9.942;2022-07-21T10:29:53;26.10;99.90
34279;DHT22;20538;51.528;9.942;2022-07-21T10:32:25;26.50;99.90
34279;DHT22;20538;51.528;9.942;2022-07-21T10:34:57;26.80;99.90
34279;DHT22;20538;51.528;9.942;2022-07-21T10:47:54;26.70;99.90
34279;DHT22;20538;51.528;9.942;2022-07-21T10:50:31;26.80;99.90
34279;DHT22;20538;51.528;9.942;2022-07-21T10:53:00;26.70;99.90
34279;DHT22;20538;51.528;9.942;2022-07-21T10:55:28;26.30;99.90
34279;DHT22;20538;51.528;9.942;2022-07-21T11:00:46;27.10;99.90
34279;DHT22;20538;51.528;9.942;2022-07-21T11:03:16;27.40;99.90
34279;DHT22;20538;51.528;9.942;2022-07-21T11:11:32;27.20;99.90
34279;DHT22;20538;51.528;9.942;2022-07-21T11:19:46;27.10;99.90
34279;DHT22;20538;51.528;9.942;2022-07-21T11:24:48;27.50;99.90
34279;DHT22;20538;51.528;9.942;2022-07-21T11:27:20;27.40;99.90
34279;DHT22;20538;51.528;9.942;2022-07-21T11:29:48;27.30;99.70
34279;DHT22;20538;51.528;9.942;2022-07-21T11:32:15;26.90;99.30
34279;DHT22;20538;51.528;9.942;2022-07-21T11:34:57;26.80;99.90
34279;DHT22;20538;51.528;9.942;2022-07-21T11:37:42;26.40;99.90
34279;DHT22;20538;51.528;9.942;2022-07-21T11:42:37;26.60;99.90
34279;DHT22;20538;51.528;9.942;2022-07-21T11:45:04;26.60;99.90
34279;DHT22;20538;51.528;9.942;2022-07-21T11:47:30;26.90;99.90
34279;DHT22;20538;51.528;9.942;2022-07-21T11:49:58;26.80;99.90
34279;DHT22;20538;51.528;9.942;2022-07-21T11:52:30;26.70;99.90
34279;DHT22;20538;51.528;9.942;2022-07-21T11:54:57;27.20;99.40
34279;DHT22;20538;51.528;9.942;2022-07-21T11:57:24;27.30;99.10
34279;DHT22;20538;51.528;9.942;2022-07-21T11:59:51;26.80;99.40
34279;DHT22;20538;51.528;9.942;2022-07-21T12:02:22;27.10;99.10
34279;DHT22;20538;51.528;9.942;2022-07-21T12:07:48;27.50;99.00
34279;DHT22;20538;51.528;9.942;2022-07-21T12:10:29;27.60;98.00
34279;DHT22;20538;51.528;9.942;2022-07-21T12:13:06;27.90;97.00
34279;DHT22;20538;51.528;9.942;2022-07-21T12:15:36;27.90;97.50
34279;DHT22;20538;51.528;9.942;2022-07-21T12:18:20;27.90;97.30
34279;DHT22;20538;51.528;9.942;2022-07-21T12:20:46;27.80;96.70
34279;DHT22;20538;51.528;9.942;2022-07-21T12:23:28;27.70;97.60
34279;DHT22;20538;51.528;9.942;2022-07-21T12:25:55;27.90;97.40
34279;DHT22;20538;51.528;9.942;2022-07-21T12:28:44;28.00;96.90
34279;DHT22;20538;51.528;9.942;2022-07-21T12:31:13;28.30;97.10
34279;DHT22;20538;51.528;9.942;2022-07-21T12:33:40;28.30;97.30
34279;DHT22;20538;51.528;9.942;2022-07-21T12:36:08;28.00;97.30
34279;DHT22;20538;51.528;9.942;2022-07-21T12:38:41;27.80;96.10
34279;DHT22;20538;51.528;9.942;2022-07-21T12:41:09;27.50;95.40
34279;DHT22;20538;51.528;9.942;2022-07-21T12:43:35;27.50;94.80
34279;DHT22;20538;51.528;9.942;2022-07-21T12:46:02;27.30;94.90
34279;DHT22;20538;51.528;9.942;2022-07-21T12:48:30;27.50;95.20
34279;DHT22;20538;51.528;9.942;2022-07-21T12:53:29;28.10;92.90
34279;DHT22;20538;51.528;9.942;2022-07-21T12:55:55;28.10;93.10
34279;DHT22;20538;51.528;9.942;2022-07-21T12:58:22;28.10;93.40
34279;DHT22;20538;51.528;9.942;2022-07-21T13:00:48;28.10;93.20
34279;DHT22;20538;51.528;9.942;2022-07-21T13:03:14;27.80;92.00
34279;DHT22;20538;51.528;9.942;2022-07-21T13:05:40;27.80;91.90
34279;DHT22;20538;51.528;9.942;2022-07-21T13:08:06;27.90;92.10
34279;DHT22;20538;51.528;9.942;2022-07-21T13:10:31;27.80;91.90
34279;DHT22;20538;51.528;9.942;2022-07-21T13:12:57;27.70;93.20
34279;DHT22;20538;51.528;9.942;2022-07-21T13:15:23;27.60;92.50
34279;DHT22;20538;51.528;9.942;2022-07-21T13:17:48;27.60;92.50
34279;DHT22;20538;51.528;9.942;2022-07-21T13:20:15;27.60;93.40
34279;DHT22;20538;51.528;9.942;2022-07-21T13:22:41;27.50;93.40
34279;DHT22;20538;51.528;9.942;2022-07-21T13:25:08;27.60;94.10
34279;DHT22;20538;51.528;9.942;2022-07-21T13:27:34;27.60;94.50
34279;DHT22;20538;51.528;9.942;2022-07-21T13:30:00;27.50;95.00
34279;DHT22;20538;51.528;9.942;2022-07-21T13:32:26;27.70;94.50
34279;DHT22;20538;51.528;9.942;2022-07-21T13:34:52;28.00;94.30
34279;DHT22;20538;51.528;9.942;2022-07-21T13:37:18;28.20;92.90
34279;DHT22;20538;51.528;9.942;2022-07-21T13:39:44;27.90;92.20
34279;DHT22;20538;51.528;9.942;2022-07-21T13:42:10;27.90;91.10
34279;DHT22;20538;51.528;9.942;2022-07-21T13:44:35;27.80;91.20
34279;DHT22;20538;51.528;9.942;2022-07-21T13:47:02;27.80;91.10
34279;DHT22;20538;51.528;9.942;2022-07-21T13:49:28;27.50;90.80
34279;DHT22;20538;51.528;9.942;2022-07-21T13:51:54;27.70;92.10
34279;DHT22;20538;51.528;9.942;2022-07-21T13:54:20;27.80;93.00
34279;DHT22;20538;51.528;9.942;2022-07-21T13:56:46;27.60;92.20
34279;DHT22;20538;51.528;9.942;2022-07-21T13:59:12;27.40;91.70
34279;DHT22;20538;51.528;9.942;2022-07-21T14:01:38;27.30;92.40
34279;DHT22;20538;51.528;9.942;2022-07-21T14:04:03;27.30;92.80
34279;DHT22;20538;51.528;9.942;2022-07-21T14:06:29;27.40;93.30
34279;DHT22;20538;51.528;9.942;2022-07-21T14:08:55;27.10;93.60
34279;DHT22;20538;51.528;9.942;2022-07-21T14:11:21;27.20;94.50
34279;DHT22;20538;51.528;9.942;2022-07-21T14:13:49;27.40;94.80
34279;DHT22;20538;51.528;9.942;2022-07-21T14:16:15;27.80;94.50
34279;DHT22;20538;51.528;9.942;2022-07-21T14:18:41;27.80;94.10
34279;DHT22;20538;51.528;9.942;2022-07-21T14:21:07;27.70;93.60
34279;DHT22;20538;51.528;9.942;2022-07-21T14:23:32;27.70;94.30
34279;DHT22;20538;51.528;9.942;2022-07-21T14:25:59;27.20;93.00
34279;DHT22;20538;51.528;9.942;2022-07-21T14:28:25;27.20;91.80
34279;DHT22;20538;51.528;9.942;2022-07-21T14:30:51;27.00;91.00
34279;DHT22;20538;51.528;9.942;2022-07-21T14:33:17;26.90;91.50
34279;DHT22;20538;51.528;9.942;2022-07-21T14:35:42;27.10;91.80
34279;DHT22;20538;51.528;9.942;2022-07-21T14:38:08;27.00;91.60
34279;DHT22;20538;51.528;9.942;2022-07-21T14:40:34;27.00;91.70
34279;DHT22;20538;51.528;9.942;2022-07-21T14:43:01;27.10;92.20
34279;DHT22;20538;51.528;9.942;2022-07-21T14:45:26;26.90;91.40
34279;DHT22;20538;51.528;9.942;2022-07-21T14:47:54;27.00;91.40
34279;DHT22;20538;51.528;9.942;2022-07-21T14:50:22;26.90;92.20
34279;DHT22;20538;51.528;9.942;2022-07-21T14:52:48;26.80;92.20
34279;DHT22;20538;51.528;9.942;2022-07-21T14:55:13;26.70;92.40
34279;DHT22;20538;51.528;9.942;2022-07-21T14:57:39;26.40;93.30
34279;DHT22;20538;51.528;9.942;2022-07-21T15:00:08;26.40;93.90
34279;DHT22;20538;51.528;9.942;2022-07-21T15:02:34;26.60;93.20
34279;DHT22;20538;51.528;9.942;2022-07-21T15:05:01;26.60;93.60
34279;DHT22;20538;51.528;9.942;2022-07-21T15:07:27;26.30;93.40
34279;DHT22;20538;51.528;9.942;2022-07-21T15:09:52;26.20;92.50
34279;DHT22;20538;51.528;9.942;2022-07-21T15:12:22;26.10;92.80
34279;DHT22;20538;51.528;9.942;2022-07-21T15:14:48;26.20;93.30
34279;DHT22;20538;51.528;9.942;2022-07-21T15:17:14;26.20;93.60
34279;DHT22;20538;51.528;9.942;2022-07-21T15:19:41;26.00;93.60
34279;DHT22;20538;51.528;9.942;2022-07-21T15:22:07;26.00;94.50
34279;DHT22;20538;51.528;9.942;2022-07-21T15:24:34;25.90;95.90
34279;DHT22;20538;51.528;9.942;2022-07-21T15:27:00;25.30;97.10
34279;DHT22;20538;51.528;9.942;2022-07-21T15:29:25;25.00;99.60
34279;DHT22;20538;51.528;9.942;2022-07-21T15:31:51;24.60;99.90
34279;DHT22;20538;51.528;9.942;2022-07-21T15:34:17;24.60;99.90
34279;DHT22;20538;51.528;9.942;2022-07-21T15:36:43;24.60;99.90
34279;DHT22;20538;51.528;9.942;2022-07-21T15:39:09;24.50;99.90
34279;DHT22;20538;51.528;9.942;2022-07-21T15:41:36;24.40;99.90
34279;DHT22;20538;51.528;9.942;2022-07-21T15:44:04;24.50;99.90
34279;DHT22;20538;51.528;9.942;2022-07-21T15:46:31;24.70;99.90
34279;DHT22;20538;51.528;9.942;2022-07-21T15:48:57;24.80;99.90
34279;DHT22;20538;51.528;9.942;2022-07-21T15:51:23;24.70;99.90
34279;DHT22;20538;51.528;9.942;2022-07-21T15:53:48;24.80;99.90
34279;DHT22;20538;51.528;9.942;2022-07-21T15:56:14;25.00;99.90
34279;DHT22;20538;51.528;9.942;2022-07-21T15:58:40;24.90;99.90
34279;DHT22;20538;51.528;9.942;2022-07-21T16:01:27;24.90;99.90
34279;DHT22;20538;51.528;9.942;2022-07-21T16:03:53;25.10;99.90
34279;DHT22;20538;51.528;9.942;2022-07-21T16:06:26;25.10;99.90
34279;DHT22;20538;51.528;9.942;2022-07-21T16:08:52;25.10;99.90
34279;DHT22;20538;51.528;9.942;2022-07-21T16:11:18;25.00;99.90
34279;DHT22;20538;51.528;9.942;2022-07-21T16:13:43;24.80;99.90
34279;DHT22;20538;51.528;9.942;2022-07-21T16:16:09;24.70;99.90